Time;durP1;ratioP1;P1;durP2;ratioP2;P2;SDS_P1;SDS_P2;PMS_P1;PMS_P2;Temp;Humidity;BMP_temperature;BMP_pressure;BME280_temperature;BME280_humidity;BME280_pressure;Samples;Min_cycle;Max_cycle;Signal;HPM_P1;HPM_P2
2022/12/17 13:08:18;;;;;;;29.47;17.77;;;;;;;;;;5072587;28;20658;-85
2022/12/17 13:10:46;;;;;;;22.40;14.53;;;;;;;;;;5083672;28;20202;-85
2022/12/17 13:13:19;;;;;;;24.53;14.50;;;;;;;;;;5083287;28;20269;-85
2022/12/17 13:15:49;;;;;;;24.87;15.10;;;;;;;;;;5079872;28;20237;-85
2022/12/17 13:18:21;;;;;;;24.33;14.83;;;;;;;;;;5086645;28;20205;-85
2022/12/17 13:20:57;;;;;;;18.20;11.37;;;;;;;;;;5086045;28;20194;-85
2022/12/17 13:23:30;;;;;;;27.10;15.30;;;;;;;;;;5075936;28;20228;-85
2022/12/17 13:26:21;;;;;;;25.77;14.17;;;;;;;;;;5079395;28;20234;-85
2022/12/17 13:29:00;;;;;;;26.97;15.40;;;;;;;;;;5074801;28;20199;-85
2022/12/17 13:31:29;;;;;;;21.50;13.20;;;;;;;;;;5075837;28;20215;-86
2022/12/17 13:34:00;;;;;;;23.80;13.37;;;;;;;;;;5074611;28;20206;-85
2022/12/17 13:36:31;;;;;;;22.97;14.53;;;;;;;;;;5075727;28;20254;-85
2022/12/17 13:39:03;;;;;;;22.33;13.77;;;;;;;;;;5074232;28;20206;-85
2022/12/17 13:41:32;;;;;;;24.83;13.93;;;;;;;;;;5077563;28;20199;-84
2022/12/17 13:44:00;;;;;;;22.00;14.07;;;;;;;;;;5095299;28;20232;-85
2022/12/17 13:46:29;;;;;;;24.83;15.70;;;;;;;;;;5074818;28;20255;-85
2022/12/17 13:48:57;;;;;;;22.40;14.20;;;;;;;;;;5075358;28;20202;-84
2022/12/17 13:51:25;;;;;;;24.67;14.37;;;;;;;;;;5074746;28;20732;-84
2022/12/17 13:53:53;;;;;;;29.60;17.77;;;;;;;;;;5074911;28;20199;-85
2022/12/17 13:56:25;;;;;;;26.40;15.27;;;;;;;;;;5074603;28;20333;-86
2022/12/17 13:58:52;;;;;;;24.27;14.07;;;;;;;;;;5084695;28;20201;-85
2022/12/17 14:01:20;;;;;;;26.23;15.40;;;;;;;;;;5085402;28;20702;-86
2022/12/17 14:03:52;;;;;;;23.93;14.83;;;;;;;;;;5075263;28;20241;-85
2022/12/17 14:06:20;;;;;;;24.73;15.90;;;;;;;;;;5076051;28;20614;-86
2022/12/17 14:08:48;;;;;;;25.63;16.30;;;;;;;;;;5085014;28;20237;-86
2022/12/17 14:14:01;;;;;;;27.60;15.83;;;;;;;;;;5096405;28;20205;-85
2022/12/17 14:16:29;;;;;;;24.37;15.27;;;;;;;;;;5106538;28;20238;-85
2022/12/17 14:18:58;;;;;;;23.63;15.10;;;;;;;;;;5081794;28;20635;-86
2022/12/17 14:21:26;;;;;;;23.97;14.37;;;;;;;;;;5090399;28;20263;-86
2022/12/17 14:23:53;;;;;;;29.90;17.83;;;;;;;;;;5085892;28;20250;-85
2022/12/17 14:26:21;;;;;;;26.03;15.53;;;;;;;;;;5084602;28;20263;-85
2022/12/17 14:28:49;;;;;;;27.27;17.10;;;;;;;;;;5077439;28;20290;-85
2022/12/17 14:31:18;;;;;;;21.77;13.57;;;;;;;;;;5078705;28;20726;-85
2022/12/17 14:33:46;;;;;;;25.83;16.13;;;;;;;;;;5085744;28;20193;-85
2022/12/17 14:36:20;;;;;;;27.23;16.63;;;;;;;;;;5090227;28;20203;-85
2022/12/17 14:38:52;;;;;;;24.53;15.10;;;;;;;;;;5091204;28;20258;-85
2022/12/17 14:44:17;;;;;;;21.80;13.47;;;;;;;;;;5023652;28;20806;-85
2022/12/17 14:46:45;;;;;;;21.60;13.83;;;;;;;;;;5016720;28;20277;-85
2022/12/17 14:49:16;;;;;;;24.93;14.53;;;;;;;;;;5015810;28;20256;-85
2022/12/17 14:51:45;;;;;;;24.13;14.67;;;;;;;;;;5032079;28;20639;-83
2022/12/17 14:54:20;;;;;;;22.27;13.50;;;;;;;;;;5019200;28;20222;-84
2022/12/17 14:56:48;;;;;;;21.67;13.50;;;;;;;;;;5022189;28;20291;-84
2022/12/17 14:59:36;;;;;;;24.03;15.10;;;;;;;;;;5013654;28;20240;-84
2022/12/17 15:02:05;;;;;;;25.60;16.43;;;;;;;;;;5017155;28;20313;-84
2022/12/17 15:04:33;;;;;;;25.30;15.03;;;;;;;;;;5015179;28;20284;-84
2022/12/17 15:07:02;;;;;;;26.07;15.67;;;;;;;;;;5024309;28;20271;-84
2022/12/17 15:09:29;;;;;;;23.73;15.47;;;;;;;;;;5030008;28;20588;-84
2022/12/17 15:11:56;;;;;;;26.27;16.20;;;;;;;;;;5017394;28;20260;-85
2022/12/17 15:14:23;;;;;;;26.90;15.87;;;;;;;;;;5029393;28;20225;-83
2022/12/17 15:16:51;;;;;;;25.37;15.90;;;;;;;;;;5011801;28;20223;-84
2022/12/17 15:19:18;;;;;;;28.97;16.57;;;;;;;;;;5011620;28;20226;-84
2022/12/17 15:21:45;;;;;;;33.23;17.83;;;;;;;;;;5076942;28;20240;-83
2022/12/17 15:24:16;;;;;;;47.27;25.63;;;;;;;;;;5080337;28;20195;-84
2022/12/17 15:26:43;;;;;;;36.43;19.83;;;;;;;;;;5089637;28;20199;-84
2022/12/17 15:29:11;;;;;;;30.57;19.43;;;;;;;;;;5078718;28;20257;-84
2022/12/17 15:31:38;;;;;;;30.20;18.73;;;;;;;;;;5093060;28;20194;-83
2022/12/17 15:34:05;;;;;;;30.37;18.00;;;;;;;;;;5079408;28;20242;-83
2022/12/17 15:36:33;;;;;;;30.53;18.33;;;;;;;;;;5072976;28;20202;-83
2022/12/17 15:39:00;;;;;;;27.87;17.77;;;;;;;;;;5076819;28;20194;-83
2022/12/17 15:44:14;;;;;;;25.20;16.80;;;;;;;;;;5079286;28;20225;-83
2022/12/17 15:46:41;;;;;;;29.07;18.63;;;;;;;;;;5079143;28;20199;-83
2022/12/17 15:49:08;;;;;;;30.53;18.83;;;;;;;;;;5072526;28;20251;-83
2022/12/17 15:51:35;;;;;;;25.83;16.33;;;;;;;;;;5072853;28;20206;-84
2022/12/17 15:54:03;;;;;;;29.17;19.10;;;;;;;;;;5077431;28;20279;-83
2022/12/17 15:56:32;;;;;;;30.57;18.00;;;;;;;;;;5077817;28;20662;-83
2022/12/17 15:58:59;;;;;;;32.53;20.43;;;;;;;;;;5072419;28;20220;-83
2022/12/17 16:01:27;;;;;;;45.77;26.17;;;;;;;;;;5074972;28;20268;-83
2022/12/17 16:03:54;;;;;;;30.00;19.17;;;;;;;;;;5072660;28;20252;-83
2022/12/17 16:06:21;;;;;;;32.37;19.53;;;;;;;;;;5077182;28;20197;-83
2022/12/17 16:08:48;;;;;;;30.83;18.90;;;;;;;;;;5081310;28;20640;-83
2022/12/17 16:11:16;;;;;;;32.40;19.10;;;;;;;;;;5086772;28;20226;-83
2022/12/17 16:13:44;;;;;;;47.23;28.03;;;;;;;;;;5078974;28;20240;-83
2022/12/17 16:16:12;;;;;;;33.47;21.07;;;;;;;;;;5089853;28;20194;-83
2022/12/17 16:18:39;;;;;;;52.27;30.77;;;;;;;;;;5072233;28;20229;-83
2022/12/17 16:21:07;;;;;;;32.63;19.63;;;;;;;;;;5090902;28;20271;-81
2022/12/17 16:23:35;;;;;;;40.10;25.17;;;;;;;;;;5092476;28;20203;-83
2022/12/17 16:26:03;;;;;;;42.10;26.70;;;;;;;;;;5088690;28;20251;-83
2022/12/17 16:28:31;;;;;;;40.43;24.27;;;;;;;;;;5089061;28;20229;-83
2022/12/17 16:31:01;;;;;;;50.77;28.40;;;;;;;;;;5091885;28;20192;-83
2022/12/17 16:33:28;;;;;;;34.37;22.37;;;;;;;;;;5091456;28;20199;-83
2022/12/17 16:35:55;;;;;;;56.10;33.37;;;;;;;;;;5078642;28;20261;-83
2022/12/17 16:38:23;;;;;;;37.77;22.87;;;;;;;;;;5073510;28;20328;-83
2022/12/17 16:40:50;;;;;;;97.77;55.57;;;;;;;;;;5083553;28;20206;-83
2022/12/17 16:43:17;;;;;;;41.20;25.47;;;;;;;;;;5092583;28;20669;-83
2022/12/17 16:45:47;;;;;;;42.47;27.27;;;;;;;;;;5085078;28;20694;-83
2022/12/17 16:48:16;;;;;;;41.20;24.17;;;;;;;;;;5072161;28;20253;-81
2022/12/17 16:50:43;;;;;;;30.63;18.83;;;;;;;;;;5090973;28;20206;-83
2022/12/17 16:53:10;;;;;;;29.57;18.13;;;;;;;;;;5092474;28;20193;-84
2022/12/17 16:55:41;;;;;;;28.77;17.63;;;;;;;;;;5095841;28;20254;-83
2022/12/17 16:58:08;;;;;;;34.00;20.83;;;;;;;;;;5096707;28;20221;-84
2022/12/17 17:00:36;;;;;;;49.30;29.67;;;;;;;;;;5094455;28;20205;-82
2022/12/17 17:03:03;;;;;;;60.37;34.57;;;;;;;;;;5081053;28;20726;-84
2022/12/17 17:05:33;;;;;;;45.87;28.10;;;;;;;;;;5098659;28;20200;-86
2022/12/17 17:08:01;;;;;;;42.63;26.23;;;;;;;;;;5084865;28;20192;-80
2022/12/17 17:10:29;;;;;;;39.70;26.70;;;;;;;;;;5081112;28;20620;-80
2022/12/17 17:12:57;;;;;;;45.43;26.50;;;;;;;;;;5088065;28;20212;-83
2022/12/17 17:15:24;;;;;;;36.13;21.10;;;;;;;;;;5079462;28;20742;-82
2022/12/17 17:17:52;;;;;;;44.93;27.47;;;;;;;;;;5087773;28;20274;-82
2022/12/17 17:20:19;;;;;;;35.77;21.13;;;;;;;;;;5082664;28;20202;-82
2022/12/17 17:22:48;;;;;;;35.70;21.70;;;;;;;;;;5087460;28;20250;-82
2022/12/17 17:25:15;;;;;;;41.93;25.07;;;;;;;;;;5080124;28;20193;-82
2022/12/17 17:27:42;;;;;;;38.13;21.23;;;;;;;;;;5078985;28;20216;-80
2022/12/17 17:30:10;;;;;;;40.47;22.77;;;;;;;;;;5081335;28;20256;-82
2022/12/17 17:32:37;;;;;;;37.87;23.37;;;;;;;;;;5074457;28;20795;-81
2022/12/17 17:35:05;;;;;;;40.63;24.97;;;;;;;;;;5073886;28;20223;-83
2022/12/17 17:37:32;;;;;;;35.00;21.40;;;;;;;;;;5070974;28;20257;-83
2022/12/17 17:40:01;;;;;;;43.03;27.17;;;;;;;;;;5088140;28;20265;-82
2022/12/17 17:42:29;;;;;;;39.10;27.07;;;;;;;;;;5081900;28;20198;-82
2022/12/17 17:44:56;;;;;;;35.13;20.23;;;;;;;;;;5074316;28;20208;-82
2022/12/17 17:47:23;;;;;;;32.93;20.03;;;;;;;;;;5081157;28;20249;-82
2022/12/17 17:49:50;;;;;;;53.97;36.53;;;;;;;;;;5081793;28;20193;-82
2022/12/17 17:52:18;;;;;;;37.33;21.60;;;;;;;;;;5083236;28;20569;-82
2022/12/17 17:54:45;;;;;;;41.80;25.40;;;;;;;;;;5084651;28;20280;-82
2022/12/17 17:57:14;;;;;;;65.67;42.23;;;;;;;;;;5085510;28;20287;-82
2022/12/17 17:59:41;;;;;;;33.30;20.07;;;;;;;;;;5083356;28;20206;-83
2022/12/17 18:02:11;;;;;;;30.43;18.83;;;;;;;;;;5081049;28;20226;-83
2022/12/17 18:04:38;;;;;;;31.03;17.73;;;;;;;;;;5085065;28;20310;-82
2022/12/17 18:07:06;;;;;;;31.13;18.67;;;;;;;;;;5083496;28;20257;-86
2022/12/17 18:09:33;;;;;;;30.80;18.20;;;;;;;;;;5081507;28;20623;-79
2022/12/17 18:13:53;;;;;;;30.73;18.43;;;;;;;;;;5078474;28;20243;-79
2022/12/17 18:14:47;;;;;;;30.80;18.63;;;;;;;;;;5077977;28;20228;-79
2022/12/17 18:17:15;;;;;;;35.87;22.67;;;;;;;;;;4391890;28;10000733;-78
2022/12/17 18:19:42;;;;;;;30.00;19.03;;;;;;;;;;5108923;28;20269;-78
2022/12/17 18:22:09;;;;;;;30.77;18.33;;;;;;;;;;5105661;28;20198;-78
2022/12/17 18:24:36;;;;;;;32.10;19.20;;;;;;;;;;5099159;28;20265;-78
2022/12/17 18:27:04;;;;;;;29.20;17.53;;;;;;;;;;5098888;28;20258;-80
2022/12/17 18:29:31;;;;;;;29.37;18.17;;;;;;;;;;5099606;28;20252;-79
2022/12/17 18:31:59;;;;;;;30.90;18.50;;;;;;;;;;5104208;28;20281;-79
2022/12/17 18:34:27;;;;;;;29.90;16.67;;;;;;;;;;5103397;28;20303;-78
2022/12/17 18:36:54;;;;;;;29.17;18.13;;;;;;;;;;5101935;28;20247;-79
2022/12/17 18:39:22;;;;;;;33.43;18.97;;;;;;;;;;5095310;28;20277;-78
2022/12/17 18:44:36;;;;;;;33.40;20.03;;;;;;;;;;5106716;28;20740;-79
2022/12/17 18:47:05;;;;;;;31.67;18.63;;;;;;;;;;5101025;28;20256;-79
2022/12/17 18:49:32;;;;;;;33.10;19.50;;;;;;;;;;5119644;27;20593;-78
2022/12/17 18:51:59;;;;;;;32.33;18.77;;;;;;;;;;5127644;27;20288;-79
2022/12/17 18:54:28;;;;;;;30.90;17.53;;;;;;;;;;5131989;27;20307;-79
2022/12/17 18:56:56;;;;;;;34.20;18.63;;;;;;;;;;5131274;27;20774;-79
2022/12/17 18:59:25;;;;;;;33.70;19.17;;;;;;;;;;5130240;27;20230;-80
2022/12/17 19:01:53;;;;;;;30.80;18.30;;;;;;;;;;5131339;27;20227;-80
2022/12/17 19:04:22;;;;;;;34.60;19.43;;;;;;;;;;5130133;27;20228;-80
2022/12/17 19:06:52;;;;;;;30.07;18.37;;;;;;;;;;5132287;27;20246;-80
2022/12/17 19:09:20;;;;;;;29.37;18.13;;;;;;;;;;5134217;27;20246;-81
2022/12/17 19:11:47;;;;;;;29.63;17.13;;;;;;;;;;5131619;27;20243;-79
2022/12/17 19:14:16;;;;;;;30.83;18.67;;;;;;;;;;5131237;27;20262;-80
2022/12/17 19:16:43;;;;;;;36.20;20.10;;;;;;;;;;5128229;27;20211;-80
2022/12/17 19:19:11;;;;;;;30.07;18.50;;;;;;;;;;5123469;27;20272;-80
2022/12/17 19:21:40;;;;;;;31.40;17.97;;;;;;;;;;5131424;27;20200;-80
2022/12/17 19:24:08;;;;;;;25.60;14.70;;;;;;;;;;5132681;27;20198;-80
2022/12/17 19:26:36;;;;;;;31.83;20.30;;;;;;;;;;5131901;27;20276;-79
2022/12/17 19:29:04;;;;;;;34.30;21.07;;;;;;;;;;5131975;27;20288;-79
2022/12/17 19:31:32;;;;;;;37.60;23.20;;;;;;;;;;5130097;27;20339;-80
2022/12/17 19:34:00;;;;;;;30.77;18.63;;;;;;;;;;5122806;27;20604;-81
2022/12/17 19:36:28;;;;;;;35.30;19.57;;;;;;;;;;5125626;27;20229;-81
2022/12/17 19:38:58;;;;;;;29.37;18.03;;;;;;;;;;5128135;27;20249;-77
2022/12/17 19:41:26;;;;;;;30.47;17.83;;;;;;;;;;5118385;27;20230;-80
2022/12/17 19:43:54;;;;;;;30.00;17.97;;;;;;;;;;5130000;27;20249;-80
2022/12/17 19:46:21;;;;;;;31.87;18.73;;;;;;;;;;5130639;27;20280;-81
2022/12/17 19:48:49;;;;;;;32.23;19.40;;;;;;;;;;5131393;27;20202;-79
2022/12/17 19:51:18;;;;;;;30.87;18.87;;;;;;;;;;5144444;27;20194;-80
2022/12/17 19:53:45;;;;;;;33.73;19.53;;;;;;;;;;5138188;27;20196;-79
2022/12/17 19:56:16;;;;;;;30.63;18.20;;;;;;;;;;5132630;27;20596;-79
2022/12/17 19:58:44;;;;;;;34.63;20.07;;;;;;;;;;5132710;27;20246;-79
2022/12/17 20:01:12;;;;;;;34.47;21.07;;;;;;;;;;5134802;27;20230;-79
2022/12/17 20:03:39;;;;;;;35.60;23.20;;;;;;;;;;5130922;27;20229;-79
2022/12/17 20:06:07;;;;;;;32.53;18.83;;;;;;;;;;5130109;27;20206;-79
2022/12/17 20:08:36;;;;;;;29.03;17.80;;;;;;;;;;5129461;27;20199;-79
2022/12/17 20:11:31;;;;;;;31.00;18.17;;;;;;;;;;5124119;27;20230;-79
2022/12/17 20:13:54;;;;;;;32.07;17.87;;;;;;;;;;5124628;27;20348;-79
2022/12/17 20:16:22;;;;;;;31.60;18.93;;;;;;;;;;5121270;27;20647;-79
2022/12/17 20:18:49;;;;;;;51.80;26.07;;;;;;;;;;5124481;27;20221;-79
2022/12/17 20:21:16;;;;;;;30.00;18.03;;;;;;;;;;5109481;27;20255;-79
2022/12/17 20:23:46;;;;;;;43.57;24.60;;;;;;;;;;5103978;27;20205;-81
2022/12/17 20:26:13;;;;;;;73.93;39.57;;;;;;;;;;5124548;27;20228;-82
2022/12/17 20:28:42;;;;;;;31.80;18.00;;;;;;;;;;5126635;27;20197;-82
2022/12/17 20:31:11;;;;;;;32.03;18.30;;;;;;;;;;5123402;27;21580;-82
2022/12/17 20:33:38;;;;;;;41.23;25.47;;;;;;;;;;5114215;27;20202;-82
2022/12/17 20:36:07;;;;;;;40.37;24.00;;;;;;;;;;5126362;27;20199;-82
2022/12/17 20:38:34;;;;;;;34.63;20.57;;;;;;;;;;5124337;28;20233;-82
2022/12/17 20:41:02;;;;;;;33.13;17.10;;;;;;;;;;5119842;27;20230;-82
2022/12/17 20:43:29;;;;;;;56.30;32.13;;;;;;;;;;5125019;28;20224;-82
2022/12/17 20:45:56;;;;;;;33.97;21.27;;;;;;;;;;5113046;27;20805;-82
2022/12/17 20:48:26;;;;;;;41.00;27.20;;;;;;;;;;5118542;27;20197;-82
2022/12/17 20:50:54;;;;;;;33.27;20.60;;;;;;;;;;5116208;27;20203;-82
2022/12/17 20:53:21;;;;;;;30.60;18.10;;;;;;;;;;5119572;27;20198;-82
2022/12/17 20:55:49;;;;;;;31.30;17.50;;;;;;;;;;5127275;27;20610;-82
2022/12/17 20:58:16;;;;;;;30.63;17.40;;;;;;;;;;5121344;28;20266;-82
2022/12/17 21:00:43;;;;;;;32.07;18.90;;;;;;;;;;5123538;28;20222;-82
2022/12/17 21:03:10;;;;;;;42.20;22.83;;;;;;;;;;5128520;28;21096;-82
2022/12/17 21:05:39;;;;;;;39.87;22.57;;;;;;;;;;5120263;28;20203;-82
2022/12/17 21:08:07;;;;;;;41.27;23.50;;;;;;;;;;5119382;27;20210;-82
2022/12/17 21:10:34;;;;;;;41.37;22.03;;;;;;;;;;5117296;28;20612;-82
2022/12/17 21:15:49;;;;;;;44.97;24.10;;;;;;;;;;5124999;28;20212;-83
2022/12/17 21:18:16;;;;;;;41.13;22.07;;;;;;;;;;5122909;28;20272;-82
2022/12/17 21:20:54;;;;;;;46.83;25.30;;;;;;;;;;5122081;28;20207;-82
2022/12/17 21:23:22;;;;;;;63.27;36.93;;;;;;;;;;5118162;27;20649;-82
2022/12/17 21:25:49;;;;;;;35.30;19.80;;;;;;;;;;5119969;28;20198;-81
2022/12/17 21:28:16;;;;;;;31.53;18.07;;;;;;;;;;5119393;27;20191;-81
2022/12/17 21:30:45;;;;;;;33.27;19.67;;;;;;;;;;5125438;28;20225;-82
2022/12/17 21:33:13;;;;;;;36.30;20.87;;;;;;;;;;5124688;28;20286;-82
2022/12/17 21:35:58;;;;;;;33.43;17.67;;;;;;;;;;5125815;28;20209;-82
2022/12/17 21:38:25;;;;;;;48.33;26.17;;;;;;;;;;5114574;28;21045;-82
2022/12/17 21:40:52;;;;;;;35.37;19.20;;;;;;;;;;5117534;27;20206;-82
2022/12/17 21:43:20;;;;;;;39.07;20.43;;;;;;;;;;5128822;27;20270;-82
2022/12/17 21:45:47;;;;;;;41.37;21.03;;;;;;;;;;5123881;27;20254;-82
2022/12/17 21:48:14;;;;;;;35.47;20.43;;;;;;;;;;5119732;27;21722;-84
2022/12/17 21:50:42;;;;;;;34.43;19.60;;;;;;;;;;5130889;27;20202;-83
2022/12/17 21:53:11;;;;;;;35.07;19.70;;;;;;;;;;5117176;27;20284;-83
2022/12/17 21:55:39;;;;;;;32.67;17.40;;;;;;;;;;5114597;27;20203;-83
2022/12/17 21:58:07;;;;;;;32.50;18.23;;;;;;;;;;5127959;27;20220;-83
2022/12/17 22:00:35;;;;;;;31.83;18.27;;;;;;;;;;5121134;27;20712;-79
2022/12/17 22:03:02;;;;;;;34.07;17.30;;;;;;;;;;5127817;27;20281;-80
2022/12/17 22:05:29;;;;;;;34.03;17.70;;;;;;;;;;5129642;27;21536;-79
2022/12/17 22:07:57;;;;;;;35.10;18.90;;;;;;;;;;5129127;27;20224;-79
2022/12/17 22:10:25;;;;;;;34.00;19.13;;;;;;;;;;5128384;27;20734;-80
2022/12/17 22:15:39;;;;;;;31.73;17.93;;;;;;;;;;5126785;27;20622;-80
2022/12/17 22:18:06;;;;;;;35.17;19.97;;;;;;;;;;5116963;27;20243;-80
2022/12/17 22:20:33;;;;;;;33.77;18.90;;;;;;;;;;5121075;27;20239;-80
2022/12/17 22:23:01;;;;;;;35.67;18.87;;;;;;;;;;5119874;27;20202;-80
2022/12/17 22:25:29;;;;;;;33.83;18.47;;;;;;;;;;5125886;27;20197;-79
2022/12/17 22:27:56;;;;;;;35.33;18.63;;;;;;;;;;5130895;27;20324;-80
2022/12/17 22:33:09;;;;;;;32.73;18.27;;;;;;;;;;5125901;27;20204;-80
2022/12/17 22:35:38;;;;;;;32.63;18.10;;;;;;;;;;5128611;27;20274;-80
2022/12/17 22:38:05;;;;;;;35.83;19.53;;;;;;;;;;5130710;27;20283;-80
2022/12/17 22:40:34;;;;;;;38.47;19.63;;;;;;;;;;5122914;27;20271;-80
2022/12/17 22:45:46;;;;;;;30.03;16.20;;;;;;;;;;5117652;27;20787;-80
2022/12/17 22:48:14;;;;;;;36.73;18.77;;;;;;;;;;5116568;27;20554;-79
2022/12/17 22:50:41;;;;;;;36.70;18.43;;;;;;;;;;5118428;27;20713;-80
2022/12/17 22:53:09;;;;;;;35.53;19.17;;;;;;;;;;5121783;27;20222;-79
2022/12/17 22:55:38;;;;;;;37.33;19.57;;;;;;;;;;5124204;27;20213;-80
2022/12/17 22:58:05;;;;;;;35.60;19.53;;;;;;;;;;5130603;27;20193;-80
2022/12/17 23:00:33;;;;;;;34.60;19.20;;;;;;;;;;5125112;27;20241;-79
2022/12/17 23:03:01;;;;;;;38.50;19.73;;;;;;;;;;5129546;27;20651;-80
2022/12/17 23:05:28;;;;;;;35.83;19.60;;;;;;;;;;5124021;27;20240;-80
2022/12/17 23:07:56;;;;;;;37.03;19.17;;;;;;;;;;5124374;27;20193;-80
2022/12/17 23:10:24;;;;;;;38.33;19.27;;;;;;;;;;5122647;27;20230;-80
2022/12/17 23:12:54;;;;;;;35.27;17.77;;;;;;;;;;5122514;27;20250;-79
2022/12/17 23:15:22;;;;;;;31.97;16.90;;;;;;;;;;5126531;27;20263;-80
2022/12/17 23:17:50;;;;;;;35.03;19.50;;;;;;;;;;5128620;27;20617;-80
2022/12/17 23:20:17;;;;;;;37.90;19.33;;;;;;;;;;5126104;27;20246;-80
2022/12/17 23:22:44;;;;;;;33.70;19.13;;;;;;;;;;5128803;27;20254;-79
2022/12/17 23:25:12;;;;;;;36.50;19.30;;;;;;;;;;5124814;27;20265;-80
2022/12/17 23:27:39;;;;;;;37.90;20.10;;;;;;;;;;5121241;27;20673;-79
2022/12/17 23:30:08;;;;;;;34.53;18.87;;;;;;;;;;5114284;27;20226;-80
2022/12/17 23:32:37;;;;;;;36.40;20.10;;;;;;;;;;5124205;27;20275;-80
2022/12/17 23:35:05;;;;;;;36.60;19.53;;;;;;;;;;5118035;27;20256;-80
2022/12/17 23:37:32;;;;;;;37.77;19.93;;;;;;;;;;5120355;27;20210;-80
2022/12/17 23:39:59;;;;;;;31.27;17.13;;;;;;;;;;5127440;27;20330;-79
2022/12/17 23:42:26;;;;;;;35.47;19.60;;;;;;;;;;5126088;27;20229;-80
2022/12/17 23:44:54;;;;;;;36.87;20.23;;;;;;;;;;5126737;27;20569;-79
2022/12/17 23:47:22;;;;;;;35.87;19.07;;;;;;;;;;5124899;27;20238;-80
2022/12/17 23:49:50;;;;;;;34.07;19.40;;;;;;;;;;5121754;27;20269;-79
2022/12/17 23:52:17;;;;;;;38.60;20.13;;;;;;;;;;5116623;27;20205;-80
2022/12/17 23:54:44;;;;;;;38.20;18.93;;;;;;;;;;5117505;27;20206;-80
2022/12/17 23:57:11;;;;;;;35.00;19.30;;;;;;;;;;5120332;27;20225;-80
2022/12/17 23:59:38;;;;;;;34.13;18.47;;;;;;;;;;5133252;27;20249;-80
